Regional Weather Synopsis
Issued by NWS Denver/Boulder, CO

Home | Current Version | Previous Version | Text Only | Print | Product List | Glossary On
Versions: 1 2 3 4 5 6 7 8 9 10 11 12 13 14 15 16 17 18 19 20 21 22 23 24 25 26 27 28 29 30 31 32 33 34 35 36 37 38 39 40 41 42 43 44 45 46 47 48 49 50
000
NZUS99 KBOU 072247
SYNBOU

Hot-Air Balloon Forecast for Colorado
National Weather Service Denver/Boulder, Colorado
1545 MST Tuesday, December 7, 2021


* * * * * Northeast Colorado * * * * *

METAR KFNL 072156Z 14009KT 10SM CLR 10/M07 A2979 RMK AO2 SLP090
       T01001072
METAR KFNL 072056Z 15005KT 10SM CLR 09/M07 A2981 RMK AO2 SLP102 T00941072
        58029
METAR KFNL 071956Z 19010KT 10SM CLR 08/M07 A2983 RMK AO2 SLP112
       T00781072

METAR KGXY 072156Z AUTO 12004KT 10SM CLR 11/M07 A2980 RMK AO2 SLP114
       T01061067
METAR KGXY 072056Z AUTO 17007KT 10SM CLR 09/M07 A2982 RMK AO2 SLP122
        T00941072 56035
METAR KGXY 071956Z AUTO 17010KT 10SM CLR 07/M07 A2985 RMK AO2 SLP139
       T00721072

METAR KLMO 072235Z AUTO 25007KT 10SM CLR 13/M10 A2980 RMK AO2
       T01261102
METAR KLMO 072215Z AUTO 25007KT 10SM CLR 14/M10 A2979 RMK AO2
       T01391104
METAR KLMO 072155Z AUTO 25012G21KT 10SM CLR 15/M10 A2979 RMK AO2
       T01451104

METAR KBDU 072235Z AUTO 28011G15KT 10SM CLR 11/M08 A2980 RMK AO2
METAR KBDU 072215Z AUTO 27006G21KT 10SM CLR 12/M08 A2980 RMK AO2
METAR KBDU 072155Z AUTO 26009G21KT 10SM CLR 12/M08 A2979 RMK AO2

METAR KEIK 072235Z AUTO 27015G25KT 10SM CLR 12/M10 A2980 RMK AO2
       T01211098 PWINO
METAR KEIK 072215Z AUTO 26018G23KT 10SM CLR 13/M10 A2979 RMK AO2
       T01261104 PWINO
METAR KEIK 072155Z AUTO 27016G23KT 10SM CLR 13/M11 A2980 RMK AO2
       T01311107 PWINO

KBJC 071954Z 0720/0818 26013KT P6SM FEW120 FEW220
     FM080200 24006KT P6SM SCT120 SCT220
     FM080600 25012KT P6SM SCT120 SCT220
SPECI KBJC 072155Z 25016G23KT 10SM FEW150 12/M09 A2983
SPECI KBJC 072000Z 24014G24KT 10SM FEW090 11/M08 A2983
METAR KBJC 071945Z 24006G15KT 10SM FEW090 09/M08 A2985

KDEN 071727Z 0718/0824 14007KT P6SM FEW120 SCT220
     FM072000 26007KT P6SM FEW120 SCT220
     FM072300 VRB06KT P6SM FEW120 SCT220
     FM080300 20010KT P6SM FEW120 SCT220
     FM081800 30010KT P6SM SCT120 BKN180
METAR KDEN 072153Z 23011KT 10SM FEW090 FEW220 12/M08 A2981 RMK AO2
       SLP065 T01171083
METAR KDEN 072053Z 25010KT 10SM FEW090 FEW220 12/M08 A2981 RMK AO2
       SLP067 T01171078 56031
METAR KDEN 071953Z 21007KT 10SM FEW090 SCT200 09/M08 A2984 RMK AO2
       SLP083 T00891078


KBKF 071703Z 0717/0823 12013KT 9999 SKC 510073 QNH2968INS
      TX10/0720Z TN00/0811Z
METAR KBKF 072158Z 23011KT 10SM FEW090 FEW220 12/M09 A2982 RMK AO2A
        SLP069 T01151089
METAR KBKF 072058Z 27006KT 10SM FEW090 FEW220 11/M08 A2983 RMK AO2A
        SLP077 T01081080 57028
METAR KBKF 071958Z 00000KT 10SM FEW090 FEW220 09/M08 A2985 RMK AO2A
        SLP089 T00911085

KAPA 071727Z 0718/0818 25006KT P6SM FEW120 BKN250
     FM072100 32006KT P6SM FEW120 SCT220
     FM072300 VRB05KT P6SM FEW120 SCT220
     FM080400 19008KT P6SM FEW120 SCT220
METAR KAPA 072153Z 28004KT 10SM FEW090 FEW160 11/M08 A2983 RMK AO2
       SLP083 T01061083
METAR KAPA 072053Z VRB04KT 10SM FEW090 FEW220 10/M08 A2983 RMK AO2
       SLP086 T01001083 56026
METAR KAPA 071953Z 00000KT 10SM FEW100 FEW220 09/M08 A2984 RMK AO2
       SLP099 T00891083

METAR KMNH 072235Z AUTO 20006KT 10SM CLR 05/M10 A2989 RMK AO2
METAR KMNH 072215Z AUTO 20007KT 10SM CLR 06/M10 A2988 RMK AO2
METAR KMNH 072155Z AUTO 20005KT 10SM CLR 06/M10 A2988 RMK AO2

METAR KFMM 072235Z AUTO 08005KT 10SM CLR 39/30 A2981 RMK AO2 LTG DSNT
       S
METAR KFMM 072215Z AUTO 10005KT 10SM CLR 39/30 A2982 RMK AO2
METAR KFMM 072155Z AUTO 18006KT 10SM CLR 40/31 A2982 RMK AO2

METAR KSTK 072235Z AUTO 17010KT 10SM CLR 07/M07 A2980 RMK AO2
METAR KSTK 072215Z AUTO 18011KT 10SM CLR 07/M07 A2980 RMK AO2
METAR KSTK 072155Z AUTO 18011KT 10SM CLR 07/M07 A2980 RMK AO2

METAR KAKO 072153Z AUTO 24010KT 10SM CLR 08/M08 A2982 RMK AO2 SLP110
       T00781083
METAR KAKO 072053Z AUTO 23007KT 10SM CLR 07/M09 A2983 RMK AO2 SLP112
       T00671089 56028
METAR KAKO 071953Z AUTO 25006KT 10SM CLR 06/M09 A2986 RMK AO2 SLP123
       T00561094

METAR KLIC 072155Z AUTO 19012KT 10SM CLR 09/M08 A2986 RMK AO2 SLP098
        T00891083
METAR KLIC 072055Z AUTO 18010KT 10SM CLR 09/M08 A2986 RMK AO2 SLP109
        T00891078 56017
METAR KLIC 071955Z AUTO VRB03KT 10SM CLR 07/M07 A2988 RMK AO2 SLP126
       T00671072

METAR KHEQ 072235Z AUTO 21007KT 10SM CLR 08/M07 A2984 RMK AO2
METAR KHEQ 072215Z AUTO 20008KT 10SM CLR 08/M07 A2984 RMK AO2
METAR KHEQ 072155Z AUTO 22010KT 10SM CLR 08/M07 A2983 RMK AO2

METAR K2V6 072234Z AUTO 19007KT 10SM CLR 08/M07 A2982 RMK AO2
METAR K2V6 072214Z AUTO 20005KT 10SM CLR 08/M07 A2983 RMK AO2
METAR K2V6 072154Z AUTO 20006KT 10SM CLR 08/M07 A2983 RMK AO2

METAR K2V5 072235Z AUTO 18007KT 10SM CLR 08/M08 A2984 RMK AO2
METAR K2V5 072215Z AUTO 19004KT 10SM CLR 08/M08 A2985 RMK AO2
METAR K2V5 072155Z AUTO 22006KT 10SM CLR 08/M08 A2985 RMK AO2

METAR KITR 072153Z AUTO 21010KT 10SM CLR 08/M08 A2987 RMK AO2 SLP119
       T00831083
METAR KITR 072053Z AUTO VRB03KT 10SM CLR 07/M09 A2987 RMK AO2 SLP123
       T00721094 56019
METAR KITR 071953Z AUTO 30005KT 10SM CLR 05/M10 A2988 RMK AO2 SLP131
        T00501100

Sunrise/Sunset for 12/07/2021
Fort Collins - 07:10:46 MST / 16:33:10 MST
Denver       - 07:07:53 MST / 16:35:12 MST
Sterling     - 07:03:38 MST / 16:25:28 MST

Denver/Boulder (KFTG) 12/07/21 22:33 UTC
Radar VAD winds      Height      Dir/Spd(kt)
                   6600 FT MSL...045/004

Denver/Boulder Aviation Discussion
Issued at 2147 UTC Tuesday, December  7, 2021

.AVIATION...(For the 00Z TAFS through 00Z Wednesday evening)
Issued at 1053 AM MST Tue Dec 7 2021
Light winds and scattered high clouds are expected through
Wednesday. The weak winds will make the direction a challenge to
forecast. Expect the current southeast winds at KDEN to switch to
the west around 20-21Z. After sunset, winds should return to a
southerly drainage direction.


* * * * * Southeast Colorado * * * * *

METAR K4BM 072235Z AUTO 24004KT 10SM CLR M01/M13 A3005 RMK AO2
METAR K4BM 072215Z AUTO 25007KT 200V280 10SM CLR M01/M13 A3002 RMK
       AO2
METAR K4BM 072155Z AUTO 23005KT 10SM SCT036 SCT046 00/M13 A3001 RMK
       AO2

METAR KAFF 072158Z AUTO 16006KT 10SM CLR 07/M11 A2985 RMK AO2 SLP082
        T00701112
METAR KAFF 072058Z AUTO 14012KT 10SM CLR 07/M11 A2985 RMK AO2 SLP082
        T00721115 57015
METAR KAFF 071958Z AUTO 16009KT 10SM CLR 08/M11 A2986 RMK AO2 SLP086
        T00751113

KCOS 071720Z 0718/0818 08010KT P6SM SCT120
     FM072000 16008KT P6SM SKC
     FM080300 02006KT P6SM FEW250
METAR KCOS 072154Z 14009KT 10SM FEW070 FEW230 08/M11 A2988 RMK AO2
        SLP091 T00781111
METAR KCOS 072054Z 16011KT 10SM FEW070 SCT230 08/M11 A2988 RMK AO2
        SLP095 T00831106 58012
METAR KCOS 071954Z 14007KT 10SM FEW070 SCT230 08/M11 A2990 RMK AO2
       SLP098 T00781111

METAR KABH 072158Z AUTO 15008KT 10SM CLR 07/M09 A2989 RMK AO2 SLP118
        T00651090
METAR KABH 072058Z AUTO 17008KT 10SM CLR 07/M09 A2990 RMK AO2 SLP127
        T00671093 57008
METAR KABH 071958Z AUTO 14008KT 10SM OVC210 07/M10 A2991 RMK AO2 SLP137
        T00651103

METAR KFLY 072235Z AUTO 19006G16KT 10SM CLR A2990 RMK AO2
METAR KFLY 072215Z AUTO 14007KT 130V210 10SM CLR A2990 RMK AO2
METAR KFLY 072155Z AUTO 16005KT 10SM CLR A2989 RMK AO2

KFCS 072106Z 0721/0903 VRB06KT 9999 SKC 510009 QNH2985INS
     BECMG 0819/0820 24009KT 9999 FEW140 SCT190 BKN260 QNH2965INS
     TX11/0722Z TNM06/0812Z
METAR KFCS 072158Z 13007KT 10SM CLR 08/M11 A2986 RMK AO2A SLP127 T00791109
        $
METAR KFCS 072058Z COR AUTO 13011KT 10SM CLR 08/M11 A2988 RMK AO2 SLPNO
        TSNO $ COR 2100
METAR KFCS 072058Z AUTO M 10SM M M M RMK AO2 SLPNO TSNO $

KPUB 071720Z 0718/0818 14007KT P6SM SKC
     FM080300 32006KT P6SM SKC
     FM081500 24005KT P6SM SKC
METAR KPUB 072153Z AUTO 12009KT 10SM CLR 09/M10 A2986 RMK AO2 SLP112
       T00941100
METAR KPUB 072053Z 11008KT 10SM CLR 10/M10 A2987 RMK AO2 SLP113
       T01001100 58011
METAR KPUB 071953Z 13009KT 10SM CLR 09/M11 A2989 RMK AO2 SLP125
       T00891106

METAR KVTP 072235Z AUTO 25014G18KT 10SM CLR 00/M07 A2998 RMK AO2
METAR KVTP 072215Z AUTO 25016G25KT 10SM CLR 00/M07 A2996 RMK AO2
METAR KVTP 072155Z AUTO 25013G22KT 10SM SCT030 SCT036 00/M07 A2996 RMK
       AO2

METAR KTAD 072154Z AUTO 08008KT 10SM CLR 14/M07 A2987 RMK AO2 SLP094
        T01391067
METAR KTAD 072054Z AUTO 10006KT 10SM OVC095 14/M06 A2986 RMK AO2 SLP090
        T01391061 56007
METAR KTAD 071954Z AUTO 11005KT 10SM OVC095 14/M06 A2987 RMK AO2 SLP092
       T01391061

METAR KLHX 072153Z AUTO 12011KT 10SM CLR 12/M09 A2986 RMK AO2 SLP103
       T01171094
METAR KLHX 072053Z AUTO 11011KT 10SM CLR 12/M09 A2988 RMK AO2 SLP114
       T01171094 56011
METAR KLHX 071953Z AUTO 11010KT 10SM CLR 11/M11 A2988 RMK AO2 SLP116
       T01111111

METAR KLAA 072153Z AUTO 12005KT 10SM CLR 12/M08 A2985 RMK AO2 SLP109
       T01171083 $
METAR KLAA 072053Z AUTO 09005KT 10SM CLR 12/M09 A2987 RMK AO2 SLP111
        T01171089 56014
METAR KLAA 071953Z AUTO 15005KT 10SM OVC110 11/M09 A2988 RMK AO2 SLP119
       T01111089

METAR KSPD 072156Z AUTO 11008KT 12/M08 A2988 RMK AO1 SLP103
       T01171078
METAR KSPD 072056Z AUTO 14006KT 12/M08 A2988 RMK AO1 SLP102 T01171083
       56010
METAR KSPD 071956Z AUTO 11007G15KT 12/M08 A2988 RMK AO1 SLP104
       T01221078

Sunrise/Sunset for 12/07/2021
Burlington - 06:55:54 MST / 16:25:40 MST
Pueblo     - 07:02:20 MST / 16:38:01 MST
Lamar      - 06:53:49 MST / 16:30:30 MST

Pueblo Aviation Discussion
Issued at 2150 UTC Tuesday, December  7, 2021

.AVIATION...(For the 00Z TAFS through 00Z Wednesday evening)
Issued at 246 PM MST Tue Dec 7 2021
VFR conditions are expected to KALS, KCOS, and KPUB over the next 24
hours. High clouds will be present near KALS most of the period, but
otherwise conditions should generally be calm. A weak front will
push south over the plains this evening, turning winds at KCOS and
KPUB more northerly after about 03Z.


* * * * * Northwest Colorado * * * * *

METAR KCAG 072153Z AUTO 26005KT 10SM CLR 08/M06 A2997 RMK AO2 SLP135
       T00781056
METAR KCAG 072053Z AUTO 27012KT 10SM CLR 09/M06 A2997 RMK AO2 SLP131
       T00891056 58015
METAR KCAG 071953Z AUTO 27011G21KT 10SM SCT050 OVC070 08/M05 A2999 RMK
       AO2 SLP141 T00831050

METAR KHDN 072156Z AUTO 27012G18KT 10SM CLR 07/M06 A2998 RMK AO2 SLP141
       T00721061
METAR KHDN 072056Z AUTO 27013G18KT 10SM FEW049 OVC065 07/M06 A2998
        RMK AO2 SLP144 T00721056 58016
METAR KHDN 071956Z AUTO 28011KT 10SM BKN047 OVC060 06/M05 A3000 RMK AO2
       SLP153 T00561050

METAR KSBS 072235Z AUTO 00000KT 10SM OVC055 05/M06 A2997 RMK AO1
       T00531058
METAR KSBS 072215Z AUTO 14008KT 10SM OVC065 05/M04 A2996 RMK AO1
       T00521039
METAR KSBS 072155Z AUTO 00000KT 10SM SCT048 OVC060 04/M04 A2997 RMK
        AO1 T00361040

METAR KC07 072235Z AUTO 27005KT 10SM BKN017 BKN024 OVC029 M05/M05 A3003
       RMK AO2
METAR KC07 072215Z AUTO 28005KT 10SM SCT004 BKN018 OVC027 M05/M05 A3002
       RMK AO2
METAR KC07 072155Z AUTO 29006KT 10SM BKN002 BKN007 OVC030 M05/M05 A3003
       RMK AO2

METAR K33V 072235Z AUTO 25011G21KT 10SM SCT050 01/M10 A2997 RMK AO1
METAR K33V 072210Z AUTO 24017G22KT 10SM CLR 02/M09 A2996 RMK AO1
METAR K33V 072155Z AUTO 24013G20KT 10SM CLR 02/M09 A2996 RMK AO1

METAR KEEO 072153Z AUTO 20012G19KT 10SM CLR 06/M04 A2999 RMK AO2 SLP134
       T00611039
METAR KEEO 072053Z AUTO 20007KT 10SM BKN060 07/M05 A2998 RMK AO2 SLP133
       T00721050 56017
METAR KEEO 071953Z AUTO 21006KT 10SM BKN065 07/M05 A3000 RMK AO2 SLP139
       T00721050

METAR K20V 072235Z AUTO 25009KT 10SM SCT060 BKN075 05/M06 A2998 RMK
       AO2
METAR K20V 072215Z AUTO 26009KT 10SM BKN060 BKN070 05/M06 A2999 RMK
       AO2
METAR K20V 072155Z AUTO 27011KT 10SM BKN060 BKN070 06/M06 A2999 RMK
       AO2

METAR KGNB 072235Z AUTO 31013G20KT 10SM OVC047 04/M08 A2997 RMK AO2
       T00361078
METAR KGNB 072215Z AUTO 30014G21KT 10SM OVC047 04/M07 A2997 RMK AO2
       T00371070
METAR KGNB 072155Z AUTO 30012KT 10SM SCT044 BKN050 04/M06 A2997 RMK AO2
       T00421065

METAR K0CO 072235Z AUTO 31033G51KT 1SM -SN BKN008 OVC013 M10/M11 A2995
       RMK AO2
METAR K0CO 072215Z AUTO 31039G50KT 1/2SM +SN OVC008 M10/M11 A2991 RMK
       AO2
METAR K0CO 072155Z AUTO 30035G49KT 1/2SM -SN OVC008 M10/M11 A2991 RMK
       AO2

METAR KC99 072235Z AUTO 28013G23KT 250V310 7SM OVC019 M05/M09 A2995 RMK
       AO2
METAR KC99 072215Z AUTO 31014G28KT 10SM BKN022 OVC027 M05/M10 A2995 RMK
       AO2
METAR KC99 072155Z AUTO 30018G30KT 270V340 10SM BKN021 OVC026 M06/M10
       A2994 RMK AO2

KGJT 071733Z 0718/0818 14005KT P6SM OVC030
     FM072000 31005KT P6SM BKN050
     FM080000 34006KT P6SM FEW060 FEW250
     FM080600 09005KT P6SM FEW250
     FM081200 10004KT P6SM BKN150
METAR KGJT 072153Z 28003KT 10SM FEW021 OVC036 07/02 A3006 RMK AO2 SLP169
       T00720017
METAR KGJT 072053Z 00000KT 10SM OVC037 07/02 A3006 RMK AO2 SLP171
       T00670017 56013
METAR KGJT 071953Z 00000KT 10SM OVC036 07/02 A3007 RMK AO2 SLP173
       T00670022

KRIL 071733Z 0718/0818 05004KT P6SM BKN015 OVC030
     FM080000 25005KT P6SM FEW060 SCT070
     FM080300 19006KT P6SM FEW250
     FM081200 24003KT P6SM BKN200
METAR KRIL 072153Z AUTO 25010KT 10SM CLR 08/M02 A3003 RMK AO2 SLP162
       T00781017
METAR KRIL 072053Z AUTO VRB03KT 10SM FEW036 SCT070 07/01 A3003 RMK AO2
       SLP163 T00720006 56017
SPECI KRIL 072009Z AUTO 05004KT 10SM SCT027 BKN038 06/01 A3004 RMK AO2
       T00610006

METAR K5SM 072235Z AUTO 23010G14KT 10SM BKN005 BKN008 OVC014 M05/M06
       A3010 RMK AO2
METAR K5SM 072215Z AUTO 23009G15KT 10SM OVC003 M05/M06 A3011 RMK AO2
METAR K5SM 072155Z AUTO 23007KT 10SM OVC003 M04/M06 A3011 RMK AO2

KEGE 071942Z 0720/0818 21016G20KT P6SM BKN050
     FM080000 24006KT P6SM FEW250
     FM080500 16005KT P6SM FEW250
     FM081100 10005KT P6SM FEW120 FEW250
METAR KEGE 072156Z 23018G23KT 10SM OVC060 07/M04 A3002 RMK AO2 SLP177
       T00671039
METAR KEGE 072056Z 22015KT 10SM OVC060 07/M04 A3003 RMK AO2 SLP175
        T00721039 56012
METAR KEGE 071956Z 23016G21KT 10SM BKN043 OVC060 07/M04 A3003 RMK AO2
       SLP177 T00721039

KASE 071942Z 0720/0818 34004KT P6SM SCT014 BKN028 OVC060
     FM072100 32008KT P6SM SCT030 BKN060
     FM080000 29007KT P6SM FEW070 SCT080
     FM080500 18007KT P6SM FEW120 FEW250
METAR KASE 072153Z 33003KT 10SM FEW023 SCT030 OVC050 02/M02 A3003 RMK
       AO2 SLP148 T00171022
METAR KASE 072053Z 00000KT 10SM OVC055 02/M03 A3003 RMK AO2 SLP142
       T00221033 56009
SPECI KASE 072019Z VRB03KT 10SM SCT023 OVC050 02/M02 A3003 RMK AO2
       T00171022

METAR KCCU 072235Z AUTO 27019G29KT 2SM -SN BKN014 OVC019 M05/M08 A3003
       RMK AO2
METAR KCCU 072215Z AUTO 28024G31KT 2SM HZ OVC013 M05/M08 A3002 RMK AO2
       VIS 1V5
METAR KCCU 072155Z AUTO 28022G26KT 7SM BKN010 BKN017 BKN023 M05/M08
       A3002 RMK AO2

SPECI KLXV 072237Z AUTO 33013G22KT 10SM SCT022 M03/M08 A3002 RMK AO2 PK
       WND 32027/2221 T10281083
METAR KLXV 072153Z AUTO 35014G26KT 10SM BKN022 BKN027 M02/M08 A3000 RMK
       AO2 PK WND 35026/2147 SNE36 SLP122 P0000 T10221083
SPECI KLXV 072116Z AUTO 30012G20KT 9SM -SN OVC028 M03/M07 A2999 RMK AO2
       P0000 T10281072

Sunrise/Sunset for 12/07/2021
Rangely           - 07:24:12 MST / 16:49:24 MST
Grand Junction    - 07:20:24 MST / 16:51:25 MST
Steamboat Springs - 07:17:32 MST / 16:40:25 MST

Grand Junction (KGJX) 12/07/21 22:29 UTC
Radar VAD winds      Height      Dir/Spd(kt)
                  13000 FT MSL...305/018

Grand Junction Aviation Discussion
Issued at 2231 UTC Tuesday, December  7, 2021

.AVIATION...(For the 18Z TAFS through 18Z Wednesday afternoon)
Issued at 1038 AM MST Tue Dec 7 2021
Some low clouds continue to hang around with IFR/MVFR conditions
being met for many TAF sites. Conditions will slowly improve this
afternoon from north to south as overcast skies become more
broken to scattered. This will start along the I-70 corridor
between 21Z to 00Z giving way to few to scattered skies and a few
hours later for TAF sites down south. Some fog is possible for
those areas that saw rain/snow over the past 24 hours but still a
bit too early to include in TAFs. Expect an increase in cloud
cover heading towards 12Z as the next weak wave starts moving in.


* * * * * Southwest Colorado * * * * *

METAR KAJZ 072235Z AUTO 20004KT 10SM CLR 07/02 A3008 RMK AO2
       T00700024
METAR KAJZ 072215Z AUTO 00000KT 10SM CLR 07/02 A3007 RMK AO2
       T00730021
METAR KAJZ 072155Z AUTO 00000KT 10SM CLR 08/02 A3007 RMK AO2
       T00760021

KMTJ 071811Z 0718/0818 27005KT P6SM SCT007 BKN070 OVC090
      TEMPO 0718/0720 BKN007
     FM072200 30005KT P6SM FEW045 SCT060
     FM080100 06005KT P6SM FEW060 SCT200
     FM080400 13007KT P6SM FEW080 FEW200
     FM081200 12005KT P6SM BKN150
METAR KMTJ 072153Z AUTO 35005KT 10SM CLR 06/02 A3006 RMK AO2 SLP167
       T00560017
SPECI KMTJ 072126Z AUTO 00000KT 10SM SCT016 06/02 A3006 RMK AO2
       T00610022
SPECI KMTJ 072102Z AUTO VRB03KT 10SM BKN016 OVC070 06/02 A3006 RMK AO2
       T00560022

METAR KGUC 072156Z AUTO 23014G18KT 10SM OVC050 04/M04 A3002 RMK AO2
       SLP169 T00391044
METAR KGUC 072056Z AUTO 23012KT 10SM SCT044 OVC055 04/M03 A3002 RMK
        AO2 SLP168 T00391033 58013
METAR KGUC 071956Z AUTO 00000KT 10SM FEW025 BKN040 OVC048 02/M02 A3004
       RMK AO2 SLP179 T00221022 FZRANO

METAR K7BM 072235Z AUTO 28013G25KT 10SM SCT046 SCT050 02/M08 A3001 RMK
       AO2
METAR K7BM 072215Z AUTO 27013G21KT 230V330 10SM SCT050 SCT060 02/M08
       A3000 RMK AO2
METAR K7BM 072155Z AUTO 30008G15KT 260V360 10SM SCT060 02/M08 A3000 RMK
       AO2

METAR KAEJ 072235Z AUTO 26009G16KT 10SM CLR 06/M09 A2997 RMK AO2
       T00611095
METAR KAEJ 072215Z AUTO 26011G21KT 10SM CLR 07/M10 A2996 RMK AO2
       T00651096
METAR KAEJ 072155Z AUTO 27012G23KT 10SM CLR 07/M09 A2995 RMK AO2
       T00691094

METAR KANK 072235Z AUTO 24016G21KT 10SM CLR 07/M07 A3004 RMK AO1
       T00731068
METAR KANK 072215Z AUTO 24017G27KT 10SM CLR 08/M07 A3003 RMK AO1
       T00761070
METAR KANK 072155Z AUTO 24020G26KT 10SM CLR 08/M07 A3002 RMK AO1
       T00811070

METAR KMYP 072235Z AUTO OVC001 M06/M07 A3013 RMK AO2 PWINO
METAR KMYP 072215Z AUTO OVC001 M06/M07 A3010 RMK AO2 PWINO
METAR KMYP 072155Z AUTO OVC001 M06/M07 A3010 RMK AO2 PWINO


KTEX 071733Z 0718/0818 24004KT P6SM BKN025 OVC035
     FM072300 28010KT P6SM SCT013 BKN060
     FM080100 20006KT P6SM SCT045 BKN180
     FM081200 13005KT P6SM BKN100
METAR KTEX 072235Z AUTO 00000KT 10SM OVC040 01/M02 A3010 RMK AO2
METAR KTEX 072215Z AUTO 00000KT 10SM OVC042 01/M03 A3010 RMK AO2
METAR KTEX 072155Z AUTO 00000KT 10SM OVC042 01/M03 A3010 RMK AO2

METAR K04V 072235Z AUTO 30014G22KT 10SM BKN050 05/M07 A3001 RMK AO2
METAR K04V 072215Z AUTO 31014G18KT 10SM OVC050 05/M07 A3000 RMK AO2
METAR K04V 072155Z AUTO 33015G21KT 10SM OVC050 05/M06 A3001 RMK AO2

METAR KCEZ 072153Z AUTO 27006G17KT 10SM CLR 08/01 A3005 RMK AO2 SLP150
       T00830006
METAR KCEZ 072053Z AUTO 25005KT 10SM OVC050 07/02 A3006 RMK AO2 SLP154
       T00670022 58008
METAR KCEZ 071953Z AUTO 28006KT 10SM OVC055 07/02 A3007 RMK AO2 SLP156
       T00670017

KDRO 071733Z 0718/0818 25009KT P6SM OVC060
     FM080000 24012KT P6SM FEW060 BKN120
     FM080300 10006KT P6SM BKN250
     FM080700 06005KT P6SM SCT250
     FM081200 VRB03KT P6SM BKN120
METAR KDRO 072153Z AUTO 25015KT 10SM BKN060 08/M03 A3002 RMK AO2 PK WND
       25027/2112 SLP154 T00831028
METAR KDRO 072053Z AUTO 27018G25KT 10SM CLR 08/M03 A3002 RMK AO2 PK WND
       25031/2025 SLP152 T00781033 58014
METAR KDRO 071953Z AUTO 27015G24KT 10SM CLR 08/M03 A3004 RMK AO2 SLP156
       T00781028

METAR KPSO 072235Z AUTO 00000KT 10SM BKN034 OVC044 04/M02 A3006 RMK AO2
       T00411019
METAR KPSO 072215Z AUTO 00000KT 10SM OVC034 04/M02 A3005 RMK AO2
       T00411018
METAR KPSO 072155Z AUTO 00000KT 10SM VCTS OVC032 04/M01 A3005 RMK AO2
       T00411013

METAR KCPW 072232Z AUTO 23008KT M1/4SM -SN OVC001 M07/M07 A3015 RMK
       AO2
METAR KCPW 072212Z AUTO 23009KT M1/4SM -SN OVC001 M07/M07 A3014 RMK
       AO2
METAR KCPW 072152Z AUTO 24010KT M1/4SM -SN OVC001 M07/M07 A3014 RMK
        AO2

KALS 071720Z 0718/0818 VRB05KT P6SM SKC
     FM072000 35006KT P6SM BKN200
     FM080000 25007KT P6SM SCT250
     FM080600 VRB04KT P6SM FEW250
METAR KALS 072152Z AUTO 00000KT 10SM SCT065 07/M05 A2998 RMK AO2 SLP129
       T00671050
METAR KALS 072052Z AUTO 36005KT 10SM FEW070 07/M04 A2998 RMK AO2 SLP124
        T00721044 56009
METAR KALS 071952Z AUTO 03006KT 10SM OVC060 07/M04 A2999 RMK AO2 SLP131
        T00671044

Sunrise/Sunset for 12/07/2021
Vail    - 07:13:12 MST / 16:41:02 MST
Durango - 07:12:39 MST / 16:53:41 MST
Alamosa - 07:05:10 MST / 16:45:12 MST

Grand Junction (KGJX) 12/07/21 22:29 UTC
Radar VAD winds      Height      Dir/Spd(kt)
                  13000 FT MSL...305/018

Grand Junction Aviation Discussion
Issued at 2231 UTC Tuesday, December  7, 2021

.AVIATION...(For the 18Z TAFS through 18Z Wednesday afternoon)
Issued at 1038 AM MST Tue Dec 7 2021
Some low clouds continue to hang around with IFR/MVFR conditions
being met for many TAF sites. Conditions will slowly improve this
afternoon from north to south as overcast skies become more
broken to scattered. This will start along the I-70 corridor
between 21Z to 00Z giving way to few to scattered skies and a few
hours later for TAF sites down south. Some fog is possible for
those areas that saw rain/snow over the past 24 hours but still a
bit too early to include in TAFs. Expect an increase in cloud
cover heading towards 12Z as the next weak wave starts moving in.


* * * * * Arizona * * * * *

KPGA 071735Z 0718/0818 VRB05KT P6SM SCT070 OVC100
     FM081400 VRB03KT P6SM OVC070
METAR KPGA 072153Z AUTO 24003KT 10SM OVC075 12/M02 A3002 RMK AO2 SLP144
       T01171022
METAR KPGA 072053Z AUTO 00000KT 10SM OVC075 12/M03 A3003 RMK AO2 SLP147
       T01171028 58005
METAR KPGA 071953Z AUTO 07004KT 10SM OVC080 11/M05 A3005 RMK AO2 SLP152
       T01111050

METAR KRQE 072153Z AUTO 31007KT 10SM OVC055 07/M01 A3009 RMK AO2 SLP145
       T00721011
METAR KRQE 072053Z AUTO 31010KT 10SM OVC065 07/M01 A3008 RMK AO2 SLP138
       T00721011 55006
METAR KRQE 071953Z AUTO 30007KT 10SM OVC075 08/M01 A3008 RMK AO2 SLP134
       T00781006

Flagstaff (KFSX) 12/07/21 22:36 UTC
Radar VAD winds      Height      Dir/Spd(kt)
                  30000 FT MSL...259/070
                  29000 FT MSL...259/066
                  28000 FT MSL...260/063
                  27000 FT MSL...260/058
                  26000 FT MSL...262/052
                  25000 FT MSL...263/046
                  24000 FT MSL...264/041
                  23000 FT MSL...264/038
                  22000 FT MSL...262/039
                  21000 FT MSL...261/039
                  20000 FT MSL...263/041
                  19000 FT MSL...263/042
                  18700 FT MSL...264/042
                  18000 FT MSL...265/042
                  17000 FT MSL...263/042
                  16400 FT MSL...262/042
                  16000 FT MSL...258/042
                  15000 FT MSL...257/043
                  14500 FT MSL...252/043
                  14000 FT MSL...251/041
                  13000 FT MSL...250/034
                  13000 FT MSL...251/035
                  12000 FT MSL...246/030
                  11800 FT MSL...246/029
                  11000 FT MSL...244/025
                  10700 FT MSL...245/023
                  10000 FT MSL...238/019
                   9900 FT MSL...230/020
                   9200 FT MSL...239/017
                   9000 FT MSL...219/017
                   8500 FT MSL...213/004
                   7800 FT MSL...004/014

Flagstaff Aviation Discussion
Issued at 2158 UTC Tuesday, December  7, 2021

.AVIATION...For the 00Z package...A band of light showers north of
the line KPRC-KGUP is weakening as it tracks east across the region.
Expect rain and higher elevation snow showers (above 7000 ft) for
the next few hours as the showers dissipate through the evening
hours. MVFR to IFR ceilings and visibilities are likely in any snow
showers. light and variable winds overnight will become southwest at
10-15 kts gusting 20-25 kts after 16Z. Aviation discussion not
updated for TAF amendments.


* * * * * Utah * * * * *

KSLC 072040Z 0721/0824 33007KT P6SM FEW090 FEW200
     FM080300 15005KT P6SM FEW100 FEW200
     FM081500 17010KT P6SM SCT070 BKN090
     FM081900 17012G20KT P6SM OVC050
METAR KSLC 072154Z 33007KT 10SM FEW003 FEW065 FEW090 11/M04 A3004 RMK
        AO2 SLP161 FU FEW003 FU DSNT SW T01061044
SPECI KSLC 072149Z 33006KT 10SM FEW003 FEW065 FEW090 11/M04 A3004 RMK
       AO2 FU FEW003 FU DSNT SW
METAR KSLC 072054Z 34005KT 10SM FEW065 FEW090 11/M02 A3005 RMK AO2
        SLP166 T01061017 57018

KVEL 071733Z 0718/0818 19004KT P6SM FEW090
     FM080200 34006KT P6SM FEW150 FEW250
     FM080600 05005KT P6SM FEW120 FEW250
     FM081200 30003KT P6SM SCT250
METAR KVEL 072153Z AUTO 14005KT 10SM CLR 09/M08 A2997 RMK AO2 SLP147
       T00891083
METAR KVEL 072053Z AUTO 11005KT 10SM CLR 09/M08 A2999 RMK AO2 SLP151
       T00891078 58018
METAR KVEL 071953Z AUTO VRB03KT 10SM CLR 08/M07 A3001 RMK AO2 SLP158
       T00781072

METAR KPUC 072153Z AUTO 15003KT 10SM CLR 08/M02 A3001 RMK AO2 SLP167
       T00781022
METAR KPUC 072053Z AUTO 00000KT 10SM CLR 08/M01 A3003 RMK AO2 SLP173
        T00781011 56017
METAR KPUC 071953Z AUTO VRB03KT 10SM CLR 07/M01 A3005 RMK AO2 SLP179
       T00671011

KCNY 071942Z 0720/0818 15006KT P6SM OVC030
     FM072100 33005KT P6SM BKN030
     FM080000 11005KT P6SM FEW250
     FM080600 VRB03KT P6SM FEW250
SPECI KCNY 072215Z AUTO 18006KT 10SM BKN027 BKN032 09/03 A3002 RMK AO2
       T00890028
METAR KCNY 072153Z AUTO 28003KT 10SM BKN031 08/03 A3003 RMK AO2 SLP164
       T00830028
SPECI KCNY 072151Z AUTO 30003KT 10SM BKN031 08/03 A3003 RMK AO2


Salt Lake City (KMTX) 12/07/21 22:37 UTC
Radar VAD winds      Height      Dir/Spd(kt)
                  22000 FT MSL...291/010
                  20000 FT MSL...292/005
                  17000 FT MSL...335/004
                  16000 FT MSL...283/031
                  13000 FT MSL...285/020
                   9100 FT MSL...074/005
                   9000 FT MSL...077/005
                   8400 FT MSL...039/002
                   8000 FT MSL...338/002
                   7700 FT MSL...356/002
                   6900 FT MSL...341/002
                   6900 FT MSL...044/002

Salt Lake City Aviation Discussion
Issued at 1152 UTC Tuesday, December  7, 2021

.AVIATION...VFR conditions are expected to prevail across the
terminal through the valid TAF period. Morning CIGs around 9kft
AGL will gradually lift and scour out by 19z. Light southerly flow
will shift to a light northerly flow between 19-20z. Wind speeds
will be 10kts or less.
REST OF UTAH AND SOUTHWEST WYOMING...A band of of precipitation is
bringing intermittent -SN to the KBCE terminal this morning. This
area of precipitation should dissipate by 16z. Outside this area
of precipitation, much of the airspace is seeing VFR conditions,
with CIGs between 6-9kft AGL. Some mountain obscurement will be
possible across the northern and southern mountains before skies
begin to clear out this afternoon. Winds will be light and
variable across most terminals, except at the KEVW terminal where
gusty winds up to 22kts are expected by 20z.


* * * * * Wyoming * * * * *

KEVW 071724Z 0718/0818 24010KT P6SM BKN050 OVC070
     FM072000 26013G22KT P6SM BKN060 BKN100
     FM080000 23010KT P6SM FEW070 SCT090=
METAR KEVW 072153Z AUTO 28015G22KT 10SM SCT043 06/M06 A3001 RMK AO2
       SLP143 T00561061
METAR KEVW 072053Z AUTO 26014G23KT 10SM FEW043 A3002 RMK AO2 SLPNO 6////
       56014 $
METAR KEVW 071953Z AUTO 26016KT 10SM 06/M07 A3003 RMK AO2 SLP149
       T00561067 $

KRKS 071740Z 0718/0818 26018G27KT P6SM SCT035
     FM080100 25011KT P6SM SKC
METAR KRKS 072154Z AUTO 27022G33KT 10SM CLR 06/M07 A2995 RMK AO2 PK
        WND 27035/2107 SLP133 T00561072
METAR KRKS 072054Z AUTO 26020G32KT 10SM CLR 06/M07 A2996 RMK AO2 PK
        WND 26038/2000 SLP138 T00561072 56013
METAR KRKS 071954Z AUTO 27027G36KT 10SM CLR 06/M08 A2996 RMK AO2 PK WND
       26036/1902 SLP134 T00561078

KRWL 071720Z 0718/0818 26025G35KT P6SM SCT150
     FM080100 25020G30KT P6SM SCT150
METAR KRWL 072153Z AUTO 25026G39KT 10SM -RA CLR 06/M08 A2987 RMK AO2 PK
       WND 25044/2054 SLP101 P0000 T00611083
METAR KRWL 072053Z AUTO 26033G44KT 10SM -RA CLR 06/M08 A2985 RMK AO2 PK
       WND 27047/2033 SLP091 P0000 60000 T00611078 56020
METAR KRWL 071953Z AUTO 26024G42KT 10SM -RA CLR 06/M08 A2985 RMK AO2 PK
       WND 25042/1948 RAB1859E07B44 SLP091 P0000 T00611078

KLAR 071720Z 0718/0818 28025G35KT P6SM SCT150
     FM080100 25015G25KT P6SM SCT150
     FM080500 24013KT P6SM SKC
     FM081100 23017G24KT P6SM SKC
METAR KLAR 072153Z AUTO 26032G45KT 10SM CLR 05/M10 A2980 RMK AO2 PK WND
       26047/2142 SLP067 T00501100
METAR KLAR 072053Z AUTO 27031G40KT 10SM CLR 04/M09 A2981 RMK AO2 PK WND
       27041/2035 SLP069 T00441094 58018
METAR KLAR 071953Z AUTO 27021G43KT 10SM CLR 06/M09 A2984 RMK AO2 PK WND
       28043/1949 SLP077 T00561089

KCYS 071720Z 0718/0818 21020G35KT P6SM SKC
     FM072200 28017G28KT P6SM SCT150
     FM080400 28012G20KT P6SM FEW250
     FM080600 27012G20KT P6SM SKC WS020/28045KT
     FM081200 23009KT P6SM FEW250
METAR KCYS 072153Z 28022G35KT 10SM CLR 08/M09 A2978 RMK AO2 PK WND
       28035/2059 SLP059 T00831089
METAR KCYS 072053Z 28025G39KT 10SM CLR 09/M09 A2979 RMK AO2 PK WND
       28039/2049 SLP059 T00891089 56017
METAR KCYS 071953Z 28024G37KT 10SM CLR 09/M08 A2979 RMK AO2 PK WND
       27040/1902 SLP061 T00891078

Riverton (KRIW) 12/07/21 22:31 UTC
Radar VAD winds      Height      Dir/Spd(kt)
                  26000 FT MSL...194/002
                  25000 FT MSL...174/001
                  22000 FT MSL...172/002
                  17000 FT MSL...146/001
                  16800 FT MSL...154/001
                  14600 FT MSL...190/002
                  14000 FT MSL...182/001
                  12700 FT MSL...220/003
                  12000 FT MSL...313/009
                  11200 FT MSL...225/007
                  11000 FT MSL...318/017
                  10000 FT MSL...294/015
                   9000 FT MSL...300/014
                   8000 FT MSL...245/001
                   7300 FT MSL...247/004
                   7000 FT MSL...335/009
                   6200 FT MSL...279/031
                   6000 FT MSL...273/034
                   5900 FT MSL...280/031

Cheyenne (KCYS) 12/07/21 22:35 UTC
Radar VAD winds      Height      Dir/Spd(kt)
                  11000 FT MSL...288/044
                  10000 FT MSL...286/040
                   9000 FT MSL...278/041

Riverton Aviation Discussion
Issued at 2232 UTC Tuesday, December  7, 2021

.AVIATION...(For the 00Z TAFS through 00Z Wednesday evening)
Issued at 330 PM MST Tue Dec 7 2021
Breezy west winds this evening will decrease after sunset, with
KCOD being a possible exception due to westerly downslope flow off
the Absarokas. Winds increase an hour or two after sunrise
Wednesday and persist into the afternoon, with wind speeds
stronger than those seen today (Tuesday), especially across the
wind corridor from KRKS to KCPR. Snow begins developing over
western valleys Wednesday evening, and with the precipitation will
come mountain obscurations. Snow spreads across southern Wyoming
Thursday morning.

Cheyenne Aviation Discussion
Issued at 2144 UTC Tuesday, December  7, 2021

.AVIATION...(For the 18Z TAFS through 18Z Wednesday afternoon)
Issued at 1006 AM MST Tue Dec 7 2021
VFR conditions likely through the forecast period for all
terminals. Increased pressure gradients have kept winds elevated
across the domain, with stronger winds expected along and near
the mountain ranges and higher terrains. At this time, MVFR
conditions cannot fully be ruled out with lower ceilings, but kept
them in the VFR range with higher confidence in downsloping winds
across southeastern Wyoming. Into tomorrow, shortwave disturbances
within the flow are expected to nudge up the wind speeds once
again and extending eastward into the Nebraska Panhandle.


* * * * * Nebraska * * * * *

METAR KIBM 072235Z AUTO 25013G20KT 10SM CLR 07/M08 A2979 RMK AO2
       T00691078
METAR KIBM 072215Z AUTO 25013KT 10SM CLR 08/M08 A2979 RMK AO2
       T00751077
METAR KIBM 072155Z AUTO 23015G20KT 10SM CLR 08/M08 A2978 RMK AO2
       T00761078

KSNY 071720Z 0718/0818 25010KT P6SM OVC090
     FM081700 20012G20KT P6SM FEW250
METAR KSNY 072153Z AUTO 22013KT 10SM CLR 07/M07 A2978 RMK AO2 SLP102
       T00671072
METAR KSNY 072053Z AUTO 22017G23KT 10SM CLR 06/M08 A2979 RMK AO2 SLP109
       T00611078 56032
METAR KSNY 071953Z AUTO 21015KT 10SM CLR 05/M08 A2983 RMK AO2 SLP119
       T00501078

METAR KOGA 072235Z AUTO 21004KT 10SM CLR 07/M08 A2984 RMK AO2
       T00661076
METAR KOGA 072215Z AUTO 24006KT 10SM CLR 07/M08 A2984 RMK AO2
       T00701077
METAR KOGA 072155Z AUTO 23003KT 10SM CLR 07/M08 A2984 RMK AO2
       T00701080

METAR KIML 072153Z AUTO 21008KT 10SM CLR 07/M08 A2985 RMK AO2 SLP126
       T00671078
METAR KIML 072053Z AUTO 22006KT 10SM CLR 06/M08 A2985 RMK AO2 SLP129
       T00611078 58022
METAR KIML 071953Z AUTO 23007KT 10SM CLR 06/M08 A2989 RMK AO2 SLP141
       T00561083

KMCK 071841Z 0719/0818 VRB05KT P6SM FEW250
     FM080000 15005KT P6SM FEW250
     FM080400 19005KT P6SM FEW250
     FM080600 22006KT P6SM FEW250
     FM080800 26006KT P6SM FEW250
     FM081700 18004KT P6SM FEW250
METAR KMCK 072153Z AUTO 17005KT 10SM CLR 07/M08 A2987 RMK AO2 SLP130
       T00671083
METAR KMCK 072053Z AUTO 00000KT 10SM CLR 07/M08 A2988 RMK AO2 SLP135
       T00721083 58009
METAR KMCK 071953Z AUTO 00000KT 10SM CLR 06/M08 A2991 RMK AO2 SLP144
       T00561083

North Platte Aviation Discussion
Issued at 2227 UTC Tuesday, December  7, 2021

.AVIATION...(For the 18Z TAFS through 18Z Wednesday afternoon)
Issued at 1111 AM CST Tue Dec 7 2021

VFR conditions are expected throughout the TAF period. Generally
northwesterly winds right now, under 10kts, but more variable
conditions should persist around sunset and after. Clouds are
a bit patchy today, but not causing any CIG concerns.



* * * * * Kansas * * * * *

KGLD 071720Z 0718/0818 36009KT P6SM FEW250
     FM072100 VRB05KT P6SM SCT120
     FM080000 22008KT P6SM FEW250
     FM080500 26011KT P6SM SKC
     FM080800 VRB05KT P6SM SKC
     FM081700 19010KT P6SM SKC
METAR KGLD 072153Z AUTO 20004KT 10SM CLR 07/M09 A2986 RMK AO2 SLP124
       T00721094
METAR KGLD 072053Z AUTO 00000KT 10SM CLR 08/M10 A2987 RMK AO2 SLP125
       T00831100 56018
METAR KGLD 071953Z AUTO 33006KT 10SM CLR 07/M10 A2988 RMK AO2 SLP135
       T00671100

KGCK 071720Z 0718/0818 VRB06KT P6SM SCT250
     FM080600 24006KT P6SM SKC
     FM081500 19010G20KT P6SM SKC
     FM081700 18016G26KT P6SM SCT250
METAR KGCK 072154Z 33005KT 10SM CLR 08/M11 A2989 RMK AO2 SLP129
       T00781106
METAR KGCK 072054Z 30005KT 10SM CLR 08/M11 A2989 RMK AO2 SLP132
       T00781106 56003
METAR KGCK 071954Z VRB03KT 10SM CLR 07/M11 A2990 RMK AO2 SLP136
       T00671106

METAR KLBL 072156Z AUTO 04007KT 10SM CLR 12/M09 A2989 RMK AO2 SLP125
       T01171089
METAR KLBL 072056Z AUTO 02008KT 10SM CLR 12/M09 A2988 RMK AO2 SLP123
       T01221089 56011
METAR KLBL 071956Z AUTO 10SM CLR 12/M10 A2989 RMK AO2 SLP126
       T01221100

METAR KEHA 072235Z AUTO 07005KT 10SM CLR 12/M07 A2991 RMK AO2
       T01201071
METAR KEHA 072215Z AUTO 05009KT 10SM CLR 12/M07 A2991 RMK AO2
       T01251070
METAR KEHA 072155Z AUTO 05010KT 10SM CLR 13/M07 A2991 RMK AO2
       T01321072

Dodge City (KDDC) 12/07/21 22:33 UTC
Radar VAD winds      Height      Dir/Spd(kt)
                  14000 FT MSL...061/004
                  13900 FT MSL...065/003
                   9000 FT MSL...258/004
                   6000 FT MSL...298/007
                   6000 FT MSL...304/005
                   5100 FT MSL...313/003
                   5000 FT MSL...007/003

Goodland Aviation Discussion
Issued at 2214 UTC Tuesday, December  7, 2021

.AVIATION...(For the 00Z TAFS through 00Z Wednesday evening)
Issued at 305 PM MST Tue Dec 7 2021
Both KGLD and KMCK expect to see VFR conditions throughout the 00Z
TAF period. KGLD starts with southerly winds around 7 kts that
become westerly around 12 kts at 02Z before slowing to around 7
kts again at 10Z. By 17Z, KGLD winds turn southwesterly and then
return to southerly when they speed up to 13G21 kts at 18Z. The
KMCK terminal sees south-southeasterly winds around 6 kts to
begin the 00Z TAF period that turn southwesterly by 07Z. At 08Z,
KMCK winds expect to become light and variable until 16Z when
they become southerly again around 7 kts. By 20Z, winds at KMCK
speed up to 13G20 kts for the remainder of the period.

Dodge City Aviation Discussion
Issued at 2112 UTC Tuesday, December  7, 2021

.AVIATION...(For the 18Z TAFS through 18Z Wednesday afternoon)
Issued at 953 AM CST Tue Dec 7 2021
Good flying weather and VFR will continue through this TAF cycle,
with only varying amounts of cirrus. Light and variable winds this
afternoon will trend light SW overnight. Around 18z Wed, south
winds will increase at all airports, gusting 26-28 kts.


* * * * * Texas/Oklahoma * * * * *

KGUY 071720Z 0718/0818 36009KT P6SM SCT250
     FM072000 02009KT P6SM BKN200
     FM080000 10006KT P6SM SCT250
     FM081500 23005KT P6SM FEW250=
METAR KGUY 072153Z AUTO 04008KT 10SM CLR 14/M08 A2987 RMK AO2 SLP102
       T01391083
METAR KGUY 072053Z AUTO 02009KT 10SM CLR 14/M08 A2986 RMK AO2 SLP099
       T01441078 56012
METAR KGUY 071953Z AUTO 04008KT 10SM CLR 14/M08 A2986 RMK AO2 SLP103
       T01391078

KDHT 071720Z 0718/0818 01009KT P6SM SCT250
     FM071900 03011KT P6SM BKN250
     FM080200 09005KT P6SM SCT250
     FM080900 29005KT P6SM FEW250
METAR KDHT 072153Z AUTO 07013KT 10SM CLR 13/M07 A2988 RMK AO2 SLP106
       T01281072
METAR KDHT 072053Z AUTO 08013KT 10SM CLR 13/M08 A2988 RMK AO2 SLP104
       T01331078 55009
METAR KDHT 071953Z AUTO 06011G18KT 10SM CLR 13/M08 A2988 RMK AO2 SLP102
       T01331078

Amarillo (KAMA) 12/07/21 22:28 UTC
Radar VAD winds      Height      Dir/Spd(kt)
                  28000 FT MSL...274/074
                  22000 FT MSL...254/056
                  20000 FT MSL...261/056
                  19000 FT MSL...264/056
                  18000 FT MSL...264/055
                  17000 FT MSL...265/054
                  16000 FT MSL...268/054
                  15000 FT MSL...264/045
                  12000 FT MSL...263/027
                  10000 FT MSL...268/007
                   9900 FT MSL...266/007
                   9000 FT MSL...269/007
                   8200 FT MSL...270/004
                   8000 FT MSL...277/015
                   7000 FT MSL...211/005
                   6500 FT MSL...008/003
                   6000 FT MSL...047/006
                   4700 FT MSL...012/015
                   4600 FT MSL...046/006


* * * * * New Mexico * * * * *

KFMN 072051Z 0721/0818 29012G18KT P6SM VCSH SCT040 BKN120
     FM080000 28006KT P6SM BKN100
     FM080400 06007KT P6SM BKN120
     FM081500 VRB06KT P6SM BKN150
METAR KFMN 072153Z 30010KT 10SM SCT070 10/M02 A3003 RMK AO2 SLP162
       T01001017
METAR KFMN 072053Z 30011G19KT 10SM OVC070 11/M02 A3004 RMK AO2 SLP162
       T01061022 56013
METAR KFMN 071953Z 27014G20KT 10SM SCT041 10/M02 A3004 RMK AO2 SLP165
       T01001017

METAR KSKX 072156Z AUTO 29009KT 10SM OVC055 08/M05 A3002 RMK AO2 SLP170
       T00781050
METAR KSKX 072056Z AUTO 30011KT 10SM OVC060 09/M05 A3002 RMK AO2 SLP164
        T00891050 55005
METAR KSKX 071956Z AUTO 35008KT 10SM OVC055 08/M06 A3002 RMK AO2 SLP171
       T00781061

KLVS 072216Z 0722/0818 34015G25KT P6SM FEW070 BKN130
     FM080200 30007KT P6SM BKN130
     FM081500 23015G22KT P6SM SCT150 SCT250
METAR KLVS 072153Z AUTO 35013KT 10SM SCT080 12/M06 A2991 RMK AO2 SLP071
        T01221061
METAR KLVS 072053Z AUTO 32010KT 10SM CLR 13/M06 A2990 RMK AO2 WSHFT
        2024 SLP060 T01331056 56008
SPECI KLVS 072044Z AUTO 32012KT 10SM CLR 13/M06 A2990 RMK AO2 WSHFT 2024
       T01331056

METAR KRTN 072153Z AUTO 26015KT 10SM BKN085 14/M09 A2984 RMK AO2 SLP084
       T01441089
METAR KRTN 072053Z AUTO 24011G16KT 180V260 10SM BKN085 16/M09 A2983 RMK
       AO2 SLP077 T01561089 56017
METAR KRTN 071953Z AUTO 20014G19KT 10SM FEW090 13/M10 A2985 RMK AO2
       SLP092 T01331100

METAR KCAO 072155Z AUTO 10011KT 10SM CLR 11/M08 A2988 RMK AO2 SLP106
        T01111083
METAR KCAO 072055Z AUTO 07012KT 10SM CLR 12/M09 A2987 RMK AO2 SLP103
        T01221089 58004
METAR KCAO 071955Z AUTO 11012KT 10SM CLR 13/M09 A2988 RMK AO2 SLP102
       T01281094

Albuquerque (KABX) 12/07/21 22:28 UTC
Radar VAD winds      Height      Dir/Spd(kt)
                  25000 FT MSL...284/056
                  24000 FT MSL...272/054
                  22000 FT MSL...264/048
                  20000 FT MSL...282/044
                  19000 FT MSL...289/044
                  18000 FT MSL...281/047
                  17000 FT MSL...280/047
                   9000 FT MSL...291/016
                   8000 FT MSL...298/021
                   7000 FT MSL...308/020
                   6900 FT MSL...309/015
                   6300 FT MSL...315/007

Albuquerque Aviation Discussion
Issued at 1734 UTC Tuesday, December  7, 2021

.AVIATION...
18Z TAF CYCLE
Extensive mid to high level moisture to continue streaming over NM in
wly flow aloft. Mainly brief mt obscurations in MVFR cigs/vsbys in
sct -shrasn over the nw and north central NM higher terrain tapering
off aft 08/02Z. Lee surface trough with strongest winds gusting to
around 40kt along the central mt chain ewd.

* * * * * Winds and Temperatures Aloft Forecasts * * * * *

DATA BASED ON 071200Z
VALID 071800Z   FOR USE 1700-2100Z. TEMPS NEG ABV 24000
FT  3000    6000   9000    12000   18000   24000  30000  34000  39000
SLC      9900    3108-03 3015-08 3326-18 0117-28 035044 034753 332858
BCE                      3109-06 3020-15 2835-27 267742 268052 266958
LND              2923-03 3020-08 3123-18 3346-31 367045 017655 344960
RKS              2826    2934-09 3140-19 3333-31 016345 015654 323858
GJT              2807-02 3112-08 2928-18 3038-30 277743 278151 286659
FMN              2818+01 2827-06 2828-15 2753-25 277041 269151 770562
ABQ              3023+04 2828-03 2753-14 2757-23 278339 268450 269062
MBW              2838    2834-09 3336-21 3153-33 334647 334953 314458
DEN              2928-01 3030-07 2823-22 2742-33 288346 288552 287457
PUB              3311+00 3013-06 2730-18 2952-29 289642 772051 770560
ALS                      2924-05 2929-16 2752-27 279341 770451 771162
TCC      2916    2928+05 2838-03 2760-14 2774-24 279039 279450 279263
BFF      2416    3032-04 2845-11 3045-22 2961-34 296649 296154 305857
GLD      0106    3127-02 2729-07 2742-20 2845-32 288245 278652 279459
GCK      0414+04 3520+00 2921-07 2734-17 2745-29 289742 771951 772664
GAG      0207+05 3012+03 2635-03 2655-15 2769-26 287640 279350 780563
AMA      3123    2829+05 2733-02 2660-14 2773-25 288339 278950 279463
---------------------------------------------------------------------

DATA BASED ON 071200Z
VALID 080000Z   FOR USE 2100-0600Z. TEMPS NEG ABV 24000
FT  3000    6000   9000    12000   18000   24000  30000  34000  39000
SLC      9900    2911-03 2917-06 3419-14 0221-25 053943 035653 023959
BCE                      9900-06 3605-15 2917-27 266840 267450 264658
LND              3114-03 3128-05 3342-15 3435-27 016943 367553 367762
RKS              2830    2933-06 3234-15 3433-27 026343 017253 366061
GJT              2409-01 2812-07 3426-15 3620-27 012144 284151 294857
FMN              2918+01 2916-05 3023-15 2850-25 278740 770050 279060
ABQ              3018+02 2833-03 2747-14 2854-23 278239 269049 269461
MBW              2839    2944-09 3047-17 3354-28 366445 366953 356860
DEN              2827+00 3020-05 3130-17 3341-29 355046 304852 306759
PUB              2616+02 3020-05 3133-18 3048-29 289142 780351 288057
ALS                      2814-05 3033-15 2957-26 289641 770851 278860
TCC      2716    2917+04 3022-03 2750-13 2758-23 278838 279550 760461
BFF      3120    3033-05 2944-11 2956-19 3265-30 347347 346453 336258
GLD      2516    3132-02 3038-08 3047-19 3249-31 295446 286851 298057
GCK      2805+04 2617+00 3023-07 2948-18 2863-29 780843 772351 289758
GAG      0310+07 3407+01 2931-05 2739-15 2772-25 780140 771551 773462
AMA      3005    2923+03 2834-03 2752-13 2760-23 279039 279750 770862
---------------------------------------------------------------------

DATA BASED ON 071200Z
VALID 081200Z   FOR USE 0600-1700Z. TEMPS NEG ABV 24000
FT  3000    6000   9000    12000   18000   24000  30000  34000  39000
SLC      9900    2413-02 2718-04 2416-14 2009-26 161842 151851 990058
BCE                      2114-06 2217-16 2125-28 234241 223949 233855
LND              2815+03 2823+00 2526-12 2533-25 263243 262952 253659
RKS              2733    2632-02 2418-11 2223-25 231742 211951 242260
GJT              2311-01 2418-05 2015-13 2019-26 222242 212350 243257
FMN              2711+01 2623-04 2425-12 2329-24 256140 266750 256658
ABQ              2917+02 2625-02 2537-11 2546-22 255939 267248 267059
MBW              2655    2737+00 2826-11 2830-25 292643 302552 273659
DEN              2412+03 2414-01 2815-10 2810-25 262141 252051 272861
PUB              2613+03 2719+01 2809-11 2007-25 232141 263351 274959
ALS                      2616-01 2516-12 2731-24 275040 276450 266659
TCC      2709    2719+05 2722+01 2729-11 2738-22 286039 277349 286961
BFF      2832    2724-01 2824-01 3039-13 3039-25 314743 314452 294258
GLD      3310    2918+01 3123-02 3034-12 3128-25 313543 294250 294961
GCK      2610+07 2615+01 3023-01 3132-11 3420-25 284041 293251 296261
GAG      2209+08 2913+02 2923-01 3129-12 3231-24 282941 286750 288760
AMA      2408    2616+04 2718+01 2928-11 2853-23 286739 288049 287661
---------------------------------------------------------------------

This product is updated automatically at approximately 10, 30 and 50
minutes after each hour, 24 hours per day, 7 days per week.  It may
become unavailable at times due to system outages without prior notice.
Users are advised to check the time at the top of the product to ensure
that it is current.  Furthermore, content and format of the product are
subject to change without prior notice.

Comments and suggestions are welcome and should be directed to one of
the addresses or phone numbers shown at the bottom of this page.  In
order to expedite a response to comments or suggestions, be sure to
mention your interest in the hot-air balloon forecast.


USA.gov is the U.S. government's official web portal to all federal, state and local government web resources and services.